Time;durP1;ratioP1;P1;durP2;ratioP2;P2;SDS_P1;SDS_P2;PMS_P1;PMS_P2;Temp;Humidity;BMP_temperature;BMP_pressure;BME280_temperature;BME280_humidity;BME280_pressure;Samples;Min_cycle;Max_cycle;Signal;HPM_P1;HPM_P2
2021/01/12 00:00:43;;;;;;;8.00;5.90;;;5.20;99.90;;;;;;4908388;29;20198;-76
2021/01/12 00:03:16;;;;;;;8.13;6.63;;;5.30;99.90;;;;;;4913992;29;20215;-75
2021/01/12 00:05:48;;;;;;;8.93;5.75;;;5.20;99.90;;;;;;4908874;29;20225;-74
2021/01/12 00:08:21;;;;;;;7.28;5.22;;;5.30;99.90;;;;;;4915958;29;20545;-75
2021/01/12 00:10:53;;;;;;;6.80;5.78;;;5.30;99.90;;;;;;4916056;29;20247;-75
2021/01/12 00:13:26;;;;;;;7.70;5.22;;;5.30;99.90;;;;;;4915824;29;20226;-76
2021/01/12 00:15:58;;;;;;;6.38;5.20;;;5.30;99.90;;;;;;4913633;29;20211;-75
2021/01/12 00:18:32;;;;;;;6.95;5.05;;;5.30;99.90;;;;;;4909121;29;20227;-76
2021/01/12 00:21:04;;;;;;;7.95;5.13;;;5.30;99.90;;;;;;4913021;29;20206;-76
2021/01/12 00:23:37;;;;;;;5.72;5.15;;;5.30;99.90;;;;;;4913345;29;20735;-75
2021/01/12 00:26:09;;;;;;;5.60;4.93;;;5.30;99.90;;;;;;4913837;29;20206;-76
2021/01/12 00:28:42;;;;;;;6.60;4.25;;;5.30;99.90;;;;;;4913943;29;20200;-75
2021/01/12 00:31:15;;;;;;;6.53;4.72;;;5.30;99.90;;;;;;4915880;29;20192;-75
2021/01/12 00:33:48;;;;;;;6.07;4.78;;;;;;;;;;4915830;29;20202;-76
2021/01/12 00:36:21;;;;;;;5.75;4.50;;;;;;;;;;4915592;29;20542;-76
2021/01/12 00:38:54;;;;;;;5.57;4.80;;;;;;;;;;4910823;29;20243;-76
2021/01/12 00:41:27;;;;;;;6.47;5.40;;;;;;;;;;4910595;29;20200;-75
2021/01/12 00:43:54;;;;;;;6.20;4.75;;;;;;;;;;4912051;29;20192;-76
2021/01/12 00:46:26;;;;;;;6.75;4.65;;;;;;;;;;4913483;29;20708;-75
2021/01/12 00:49:00;;;;;;;6.97;4.90;;;;;;;;;;4913325;29;20294;-76
2021/01/12 00:51:34;;;;;;;7.32;5.47;;;;;;;;;;4913975;29;20570;-75
2021/01/12 00:54:07;;;;;;;9.95;6.10;;;;;;;;;;4898544;29;20246;-75
2021/01/12 00:56:40;;;;;;;6.65;4.53;;;;;;;;;;4915402;29;20191;-75
2021/01/12 00:59:13;;;;;;;6.32;4.50;;;;;;;;;;4914995;29;20223;-76
2021/01/12 01:01:46;;;;;;;5.78;4.60;;;;;;;;;;4910457;29;20226;-75
2021/01/12 01:04:19;;;;;;;9.00;4.90;;;;;;;;;;4909544;29;20187;-75
2021/01/12 01:06:52;;;;;;;8.23;5.10;;;;;;;;;;4912756;29;20724;-76
2021/01/12 01:09:25;;;;;;;5.25;4.60;;;;;;;;;;4913119;29;20202;-76
2021/01/12 01:11:58;;;;;;;5.40;3.53;;;;;;;;;;4912873;29;20222;-76
2021/01/12 01:14:31;;;;;;;7.80;3.95;;;;;;;;;;4913304;29;20559;-75
2021/01/12 01:17:03;;;;;;;7.35;4.90;;;;;;;;;;4915132;29;20195;-76
2021/01/12 01:19:37;;;;;;;9.35;5.72;;;;;;;;;;4907942;29;20234;-76
2021/01/12 01:22:10;;;;;;;5.50;4.75;;;;;;;;;;4914332;29;20282;-75
2021/01/12 01:24:43;;;;;;;5.80;4.60;;;;;;;;;;4908722;29;20199;-75
2021/01/12 01:27:16;;;;;;;6.10;4.55;;;;;;;;;;4910641;29;20195;-76
2021/01/12 01:29:42;;;;;;;5.40;4.35;;;;;;;;;;4912378;29;20202;-76
2021/01/12 01:32:15;;;;;;;11.57;6.00;;;;;;;;;;4911882;29;20452;-76
2021/01/12 01:34:49;;;;;;;10.43;5.20;;;;;;;;;;4912654;29;20198;-76
2021/01/12 01:37:21;;;;;;;6.25;4.20;;;;;;;;;;4914268;29;20191;-76
2021/01/12 01:39:54;;;;;;;4.97;4.38;;;;;;;;;;4913051;29;20708;-76
2021/01/12 01:42:27;;;;;;;10.25;4.95;;;;;;;;;;4914718;29;20730;-76
2021/01/12 01:45:00;;;;;;;8.05;4.28;;;;;;;;;;4912047;29;20203;-75
2021/01/12 01:47:34;;;;;;;7.32;4.63;;;;;;;;;;4908493;29;20218;-76
2021/01/12 01:50:08;;;;;;;4.53;4.10;;;;;;;;;;4911355;29;20247;-76
2021/01/12 01:52:41;;;;;;;5.68;4.22;;;;;;;;;;4912419;29;20289;-75
2021/01/12 01:55:14;;;;;;;8.07;4.20;;;;;;;;;;4911873;29;20285;-76
2021/01/12 01:57:47;;;;;;;8.43;4.25;;;;;;;;;;4912167;29;20664;-75
2021/01/12 02:00:38;;;;;;;5.70;4.15;;;;;;;;;;4913859;29;20227;-75
2021/01/12 02:03:08;;;;;;;6.45;4.55;;;;;;;;;;4897163;29;20230;-75
2021/01/12 02:05:38;;;;;;;6.80;4.53;;;;;;;;;;4913783;29;20204;-76
2021/01/12 02:08:13;;;;;;;4.57;4.00;;;;;;;;;;4906535;29;20223;-76
2021/01/12 02:10:48;;;;;;;4.55;4.15;;;;;;;;;;4887380;29;20225;-76
2021/01/12 02:13:23;;;;;;;6.18;4.40;;;;;;;;;;4911401;29;21011;-75
2021/01/12 02:15:58;;;;;;;4.00;3.60;;;;;;;;;;4912389;29;20202;-75
2021/01/12 02:18:34;;;;;;;4.00;3.60;;;;;;;;;;4912005;29;20720;-75
2021/01/12 02:21:07;;;;;;;3.80;3.50;;;;;;;;;;4896060;29;20323;-75
2021/01/12 02:23:37;;;;;;;5.20;3.97;;;;;;;;;;4913661;29;20623;-75
2021/01/12 02:26:11;;;;;;;4.45;3.40;;;;;;;;;;4914037;29;20202;-75
2021/01/12 02:28:44;;;;;;;3.67;3.38;;;;;;;;;;4907425;29;20275;-76
2021/01/12 02:31:17;;;;;;;4.03;3.20;;;;;;;;;;4908920;29;20206;-75
2021/01/12 02:33:50;;;;;;;3.30;2.92;;;;;;;;;;4909126;29;20995;-75
2021/01/12 02:36:24;;;;;;;3.17;2.88;;;;;;;;;;4911870;29;20196;-76
2021/01/12 02:38:57;;;;;;;2.67;2.42;;;;;;;;;;4911862;29;20225;-75
2021/01/12 02:41:32;;;;;;;3.63;2.75;;;;;;;;;;4912165;29;20529;-76
2021/01/12 02:44:05;;;;;;;4.03;2.80;;;;;;;;;;4914425;29;20204;-75
2021/01/12 02:46:39;;;;;;;3.30;3.00;;;;;;;;;;4911895;29;20555;-74
2021/01/12 02:49:11;;;;;;;3.97;3.50;;;;;;;;;;4898378;29;20196;-75
2021/01/12 02:51:44;;;;;;;2.97;2.63;;;;;;;;;;4897007;29;20226;-75
2021/01/12 02:54:17;;;;;;;2.80;2.60;;;;;;;;;;4874668;29;20304;-75
2021/01/12 02:56:52;;;;;;;3.10;2.80;;;;;;;;;;4893025;29;20296;-76
2021/01/12 02:59:19;;;;;;;2.90;2.67;;;;;;;;;;4896061;29;20215;-76
2021/01/12 03:01:51;;;;;;;2.80;2.50;;;;;;;;;;4895953;29;21597;-75
2021/01/12 03:04:24;;;;;;;2.80;2.60;;;;;;;;;;4895965;29;20198;-75
2021/01/12 03:06:57;;;;;;;2.65;2.20;;;;;;;;;;4897682;29;20680;-75
2021/01/12 03:09:30;;;;;;;3.63;2.33;;;;;;;;;;4897983;29;20204;-75
2021/01/12 03:12:03;;;;;;;3.55;2.33;;;;;;;;;;4898031;29;20221;-75
2021/01/12 03:14:36;;;;;;;1.80;1.55;;;;;;;;;;4895056;29;20737;-76
2021/01/12 03:17:11;;;;;;;1.83;1.65;;;;;;;;;;4889311;29;20261;-75
2021/01/12 03:19:44;;;;;;;1.90;1.55;;;;;;;;;;4878338;29;20812;-75
2021/01/12 03:22:17;;;;;;;1.38;1.27;;;;;;;;;;4890408;29;20222;-75
2021/01/12 03:24:50;;;;;;;1.40;1.30;;;;;;;;;;4895954;29;20255;-75
2021/01/12 03:27:23;;;;;;;1.95;1.75;;;;;;;;;;4897391;29;20204;-75
2021/01/12 03:29:56;;;;;;;1.90;1.25;;;;;;;;;;4897889;29;20197;-75
2021/01/12 03:32:29;;;;;;;1.45;1.10;;;;;;;;;;4897498;29;20283;-75
2021/01/12 03:35:02;;;;;;;2.53;1.10;;;;;;;;;;4897605;29;20206;-75
2021/01/12 03:37:35;;;;;;;1.30;1.20;;;;;;;;;;4893226;29;20264;-75
2021/01/12 03:40:08;;;;;;;4.63;1.40;;;;;;;;;;4891566;29;22074;-75
2021/01/12 03:42:42;;;;;;;1.70;1.20;;;;;;;;;;4895167;29;20240;-75
2021/01/12 03:45:14;;;;;;;1.10;1.00;;;;;;;;;;4895494;29;20641;-75
2021/01/12 03:47:47;;;;;;;1.20;1.10;;;;;;;;;;4909098;29;20227;-75
2021/01/12 03:50:20;;;;;;;1.65;1.10;;;;;;;;;;4913880;29;20204;-74
2021/01/12 03:52:54;;;;;;;1.48;1.10;;;;;;;;;;4910685;29;20220;-75
2021/01/12 03:55:27;;;;;;;1.35;1.25;;;;;;;;;;4912319;29;20239;-75
2021/01/12 03:58:07;;;;;;;1.30;1.10;;;;;;;;;;4914298;29;20200;-75
2021/01/12 04:00:39;;;;;;;1.30;1.20;;;;;;;;;;4909239;29;20218;-75
2021/01/12 04:03:12;;;;;;;1.00;0.90;;;;;;;;;;4913702;29;20222;-75
2021/01/12 04:05:45;;;;;;;1.10;1.00;;;;;;;;;;4911769;29;20680;-75
2021/01/12 04:08:12;;;;;;;1.27;1.10;;;;;;;;;;4915797;29;20574;-75
2021/01/12 04:10:44;;;;;;;1.30;1.20;;;;;;;;;;4916205;29;20187;-76
2021/01/12 04:13:18;;;;;;;1.48;1.38;;;;;;;;;;4914045;29;20226;-75
2021/01/12 04:15:51;;;;;;;2.22;1.50;;;;;;;;;;4910699;29;20203;-75
2021/01/12 04:18:23;;;;;;;1.73;1.60;;;;;;;;;;4912651;29;20253;-75
2021/01/12 04:20:56;;;;;;;1.65;1.55;;;;;;;;;;4913476;29;20202;-75
2021/01/12 04:23:29;;;;;;;2.63;1.75;;;;;;;;;;4906354;29;20275;-75
2021/01/12 04:26:02;;;;;;;2.70;2.40;;;;;;;;;;4913614;29;20219;-75
2021/01/12 04:28:36;;;;;;;2.67;1.90;;;;;;;;;;4908661;29;20191;-75
2021/01/12 04:31:09;;;;;;;1.85;1.70;;;;;;;;;;4915124;29;20187;-75
2021/01/12 04:33:36;;;;;;;2.42;1.73;;;;;;;;;;4914888;29;20686;-75
2021/01/12 04:36:09;;;;;;;2.03;1.63;;;;;;;;;;4912519;29;20651;-75
2021/01/12 04:38:42;;;;;;;2.10;1.70;;;;;;;;;;4909897;29;20735;-75
2021/01/12 04:41:15;;;;;;;1.50;1.40;;;;;;;;;;4910342;29;20192;-75
2021/01/12 04:43:49;;;;;;;2.20;1.90;;;;;;;;;;4913303;29;20229;-75
2021/01/12 04:46:22;;;;;;;2.33;2.10;;;;;;;;;;4910063;29;20279;-75
2021/01/12 04:48:55;;;;;;;2.78;2.30;;;;;;;;;;4895055;29;20207;-75
2021/01/12 04:51:28;;;;;;;1.92;1.80;;;;;;;;;;4896411;29;20204;-75
2021/01/12 04:54:01;;;;;;;2.63;2.30;;;;;;;;;;4896830;29;20188;-75
2021/01/12 04:59:38;;;;;;;2.58;2.30;;;;;;;;;;4890724;29;20240;-75
2021/01/12 05:02:13;;;;;;;2.35;2.15;;;;;;;;;;4876402;29;20631;-75
2021/01/12 05:04:41;;;;;;;2.70;2.05;;;;;;;;;;4894424;29;20638;-75
2021/01/12 05:07:13;;;;;;;3.05;2.40;;;;;;;;;;4893680;29;20228;-75
2021/01/12 05:09:46;;;;;;;3.10;2.58;;;;;;;;;;4894062;29;20287;-76
2021/01/12 05:12:20;;;;;;;1.83;1.65;;;;;;;;;;4896673;29;20216;-75
2021/01/12 05:14:54;;;;;;;2.28;2.08;;;;;;;;;;4895078;29;20200;-75
2021/01/12 05:17:33;;;;;;;3.58;2.65;;;;;;;;;;4895452;29;20189;-75
2021/01/12 05:20:06;;;;;;;2.60;2.25;;;;;;;;;;4877829;29;20301;-75
2021/01/12 05:22:40;;;;;;;3.63;2.10;;;;;;;;;;4889162;29;20280;-76
2021/01/12 05:25:20;;;;;;;4.10;2.90;;;;;;;;;;4892454;29;20195;-76
2021/01/12 05:27:53;;;;;;;2.30;2.10;;;;;;;;;;4886399;29;20194;-76
2021/01/12 05:30:27;;;;;;;2.97;2.00;;;;;;;;;;4893832;29;20199;-76
2021/01/12 05:33:01;;;;;;;2.45;2.08;;;;;;;;;;4877758;29;20623;-76
2021/01/12 05:35:36;;;;;;;1.77;1.63;;;;;;;;;;4895388;29;20200;-76
2021/01/12 05:38:10;;;;;;;1.30;1.20;;;;;;;;;;4896031;29;20557;-76
2021/01/12 05:40:43;;;;;;;3.13;1.10;;;;;;;;;;4894891;29;20244;-75
2021/01/12 05:43:16;;;;;;;1.65;1.27;;;;;;;;;;4892484;29;20224;-76
2021/01/12 05:45:49;;;;;;;1.17;1.00;;;;;;;;;;4888871;29;20212;-75
2021/01/12 05:48:23;;;;;;;1.02;0.90;;;;;;;;;;4893114;29;20574;-76
2021/01/12 05:50:58;;;;;;;2.25;0.90;;;;;;;;;;4893479;29;20204;-75
2021/01/12 05:53:36;;;;;;;1.00;0.90;;;;;;;;;;4893812;29;20216;-76
2021/01/12 05:56:12;;;;;;;1.10;1.00;;;;;;;;;;4894377;29;20204;-75
2021/01/12 05:58:49;;;;;;;1.38;0.90;;;;;;;;;;4895150;29;20275;-76
2021/01/12 06:01:21;;;;;;;1.20;0.80;;;;;;;;;;4879106;29;20210;-75
2021/01/12 06:03:54;;;;;;;0.90;0.80;;;;;;;;;;4895090;29;20307;-75
2021/01/12 06:06:27;;;;;;;1.05;0.90;;;;;;;;;;4888976;29;20212;-74
2021/01/12 06:09:00;;;;;;;1.15;0.90;;;;;;;;;;4889673;29;20256;-76
2021/01/12 06:11:28;;;;;;;1.80;1.10;;;;;;;;;;4893618;29;20207;-76
2021/01/12 06:13:57;;;;;;;1.13;0.90;;;;;;;;;;4893185;29;20387;-75
2021/01/12 06:16:34;;;;;;;1.92;0.98;;;;;;;;;;4894294;29;20198;-76
2021/01/12 06:19:09;;;;;;;1.60;1.00;;;;;;;;;;4896446;29;20228;-75
2021/01/12 06:21:50;;;;;;;1.38;1.02;;;;;;;;;;4898991;29;21356;-74
2021/01/12 06:24:29;;;;;;;2.08;0.90;;;;;;;;;;4879623;29;20598;-75
2021/01/12 06:27:02;;;;;;;1.98;1.00;;;;;;;;;;4881202;29;20204;-75
2021/01/12 06:29:35;;;;;;;1.40;1.00;;;;;;;;;;4876584;29;20561;-75
2021/01/12 06:32:09;;;;;;;2.08;0.93;;;;;;;;;;4896056;29;20271;-77
2021/01/12 06:34:35;;;;;;;3.05;1.60;;;;;;;;;;4897230;29;20215;-76
2021/01/12 06:37:10;;;;;;;2.05;1.45;;;;;;;;;;4890260;29;20228;-76
2021/01/12 06:39:40;;;;;;;1.40;1.30;;;;;;;;;;4882434;29;20227;-76
2021/01/12 06:42:15;;;;;;;1.13;0.90;;;;;;;;;;4898099;29;20226;-77
2021/01/12 06:44:49;;;;;;;1.67;1.17;;;;;;;;;;4882244;29;20205;-76
2021/01/12 06:47:23;;;;;;;1.30;1.20;;;;;;;;;;4881179;29;20228;-76
2021/01/12 06:50:05;;;;;;;1.40;1.00;;;;;;;;;;4887126;29;20277;-76
2021/01/12 06:52:38;;;;;;;2.35;2.10;;;;;;;;;;4877408;29;20800;-76
2021/01/12 06:55:12;;;;;;;1.90;1.70;;;;;;;;;;4874503;29;20757;-76
2021/01/12 06:57:45;;;;;;;3.25;2.30;;;;;;;;;;4906503;29;20196;-75
2021/01/12 07:00:19;;;;;;;2.45;1.90;;;;;;;;;;4906984;29;20222;-76
2021/01/12 07:03:01;;;;;;;1.55;1.30;;;;;;;;;;4904673;29;20791;-76
2021/01/12 07:05:37;;;;;;;1.70;1.00;;;;;;;;;;4890140;29;20212;-77
2021/01/12 07:08:10;;;;;;;1.00;0.90;;;;;;;;;;4898266;29;20195;-76
2021/01/12 07:10:44;;;;;;;1.45;1.00;;;;;;;;;;4893213;29;20223;-76
2021/01/12 07:13:17;;;;;;;1.35;1.00;;;;;;;;;;4897076;29;20230;-76
2021/01/12 07:15:50;;;;;;;1.73;1.20;;;;;;;;;;4901616;29;20235;-76
2021/01/12 07:18:24;;;;;;;2.05;1.10;;;;;;;;;;4891984;29;20646;-76
2021/01/12 07:20:57;;;;;;;1.10;1.00;;;;;;;;;;4902538;29;20230;-76
2021/01/12 07:23:30;;;;;;;1.30;1.00;;;;;;;;;;4902884;29;20608;-75
2021/01/12 07:26:04;;;;;;;1.48;1.08;;;;;;;;;;4904992;29;20521;-76
2021/01/12 07:28:33;;;;;;;1.40;1.30;;;;;;;;;;4902902;29;20212;-76
2021/01/12 07:31:08;;;;;;;1.15;1.02;;;;;;;;;;4907550;29;20218;-77
2021/01/12 07:33:42;;;;;;;1.55;1.10;;;;;;;;;;4909385;29;20750;-76
2021/01/12 07:36:16;;;;;;;1.20;1.10;;;;;;;;;;4905964;29;20218;-76
2021/01/12 07:38:44;;;;;;;1.45;1.00;;;;;;;;;;4896175;29;20298;-76
2021/01/12 07:41:17;;;;;;;1.40;1.30;;;;;;;;;;4892006;29;20260;-76
2021/01/12 07:43:50;;;;;;;1.20;1.10;;;;;;;;;;4902363;29;20201;-76
2021/01/12 07:46:24;;;;;;;1.20;1.08;;;;;;;;;;4903038;29;20552;-80
2021/01/12 07:48:52;;;;;;;3.00;1.02;;;;;;;;;;4913988;29;20207;-81
2021/01/12 07:51:27;;;;;;;1.63;1.35;;;;;;;;;;4914600;29;20200;-83
2021/01/12 07:53:59;;;;;;;1.88;1.30;;;;;;;;;;4899387;29;20283;-75
2021/01/12 07:56:32;;;;;;;1.45;1.10;;;;;;;;;;4910897;29;20198;-77
2021/01/12 07:58:59;;;;;;;1.40;1.00;;;;;;;;;;4915926;29;20195;-77
2021/01/12 08:01:32;;;;;;;1.42;1.00;;;;;;;;;;4912889;29;20199;-77
2021/01/12 08:04:06;;;;;;;1.15;0.85;;;;;;;;;;4908422;29;20206;-77
2021/01/12 08:06:40;;;;;;;1.42;1.00;;;;;;;;;;4913788;29;20209;-76
2021/01/12 08:09:21;;;;;;;1.20;1.10;;;;;;;;;;4914429;29;20199;-77
2021/01/12 08:11:55;;;;;;;1.10;1.00;;;;;;;;;;4914532;29;20761;-76
2021/01/12 08:14:22;;;;;;;0.95;0.82;;;;;;;;;;4913724;29;20199;-76
2021/01/12 08:16:56;;;;;;;1.85;1.10;;;;;;;;;;4913020;29;20199;-79
2021/01/12 08:19:24;;;;;;;1.70;1.00;;;;;;;;;;4910428;29;20234;-79
2021/01/12 08:21:57;;;;;;;2.10;0.93;;;;;;;;;;4896304;29;20230;-78
2021/01/12 08:24:31;;;;;;;1.00;0.90;;;;;;;;;;4913848;29;20558;-77
2021/01/12 08:26:58;;;;;;;7.75;4.35;;;;;;;;;;4913961;29;20195;-76
2021/01/12 08:29:33;;;;;;;1.55;1.20;;;;;;;;;;4914389;29;20582;-79
2021/01/12 08:32:07;;;;;;;1.83;1.25;;;;;;;;;;4898629;29;20215;-77
2021/01/12 08:34:49;;;;;;;1.10;1.00;;;;;;;;;;4915471;29;20233;-78
2021/01/12 08:37:17;;;;;;;1.65;1.45;;;;;;;;;;4915323;29;20203;-79
2021/01/12 08:39:58;;;;;;;3.25;1.15;;;;;;;;;;4910870;29;20282;-80
2021/01/12 08:42:32;;;;;;;2.90;1.20;;;;;;;;;;4910457;29;20225;-77
2021/01/12 08:45:11;;;;;;;2.20;1.50;;;;;;;;;;4913311;29;20205;-76
2021/01/12 08:47:45;;;;;;;1.13;1.02;;;;;;;;;;4913421;29;20223;-82
2021/01/12 08:50:13;;;;;;;1.55;1.40;;;;;;;;;;4896673;29;20274;-79
2021/01/12 08:52:48;;;;;;;1.15;1.05;;;;;;;;;;4914729;29;20233;-77
2021/01/12 08:55:16;;;;;;;1.45;1.20;;;;;;;;;;4914868;29;20196;-77
2021/01/12 08:57:56;;;;;;;1.70;1.30;;;;;;;;;;4914933;29;20746;-79
2021/01/12 09:00:37;;;;;;;2.08;1.58;;;;;;;;;;4914960;29;20317;-79
2021/01/12 09:03:04;;;;;;;1.55;1.35;;;;;;;;;;4908546;29;20311;-77
2021/01/12 09:05:39;;;;;;;1.70;1.60;;;;;;;;;;4893942;29;20204;-79
2021/01/12 09:08:07;;;;;;;1.50;1.30;;;;;;;;;;4913075;29;20191;-78
2021/01/12 09:10:34;;;;;;;1.60;1.35;;;;;;;;;;4913509;29;20278;-81
2021/01/12 09:13:13;;;;;;;1.92;1.00;;;;;;;;;;4895698;29;20211;-77
2021/01/12 09:15:51;;;;;;;3.85;1.50;;;;;;;;;;4909568;29;20296;-79
2021/01/12 09:18:19;;;;;;;1.50;1.40;;;;;;;;;;4914169;29;20194;-81
2021/01/12 09:20:53;;;;;;;1.83;1.73;;;;;;;;;;4915132;29;20222;-79
2021/01/12 09:23:27;;;;;;;2.05;1.20;;;;;;;;;;4913160;29;20229;-77
2021/01/12 09:26:01;;;;;;;1.70;1.60;;;;;;;;;;4908783;29;20208;-78
2021/01/12 09:28:30;;;;;;;2.05;1.50;;;;;;;;;;4911802;29;20211;-79
2021/01/12 09:31:05;;;;;;;1.65;1.45;;;;;;;;;;4912921;29;20201;-79
2021/01/12 09:33:32;;;;;;;4.30;1.77;;;;;;;;;;4895833;29;20290;-81
2021/01/12 09:36:04;;;;;;;2.28;1.88;;;;;;;;;;4912884;29;20211;-78
2021/01/12 09:38:38;;;;;;;3.67;2.30;;;;;;;;;;4914189;29;20288;-77
2021/01/12 09:41:11;;;;;;;3.50;2.03;;;;;;;;;;4914424;29;20573;-79
2021/01/12 09:43:38;;;;;;;2.65;1.90;;;;;;;;;;4890963;29;20302;-78
2021/01/12 09:46:11;;;;;;;3.00;2.47;;;;;;;;;;4912719;29;20641;-78
2021/01/12 09:48:38;;;;;;;4.82;3.35;;;7.10;99.90;;;;;;4907542;29;20715;-77
2021/01/12 09:51:06;;;;;;;7.55;3.67;;;7.10;99.90;;;;;;4911059;29;20202;-78
2021/01/12 09:53:33;;;;;;;4.18;3.03;;;;;;;;;;4895024;29;20236;-80
2021/01/12 09:56:01;;;;;;;7.88;4.20;;;;;;;;;;4912552;29;20606;-79
2021/01/12 09:58:33;;;;;;;5.53;3.72;;;;;;;;;;4912402;29;20215;-77
2021/01/12 10:01:06;;;;;;;6.20;3.50;;;7.20;99.90;;;;;;4914307;29;20225;-81
2021/01/12 10:03:39;;;;;;;5.95;3.08;;;7.20;99.90;;;;;;4913810;29;20222;-78
2021/01/12 10:06:06;;;;;;;4.93;3.67;;;7.20;99.90;;;;;;4914599;29;20208;-78
2021/01/12 10:08:41;;;;;;;2.90;2.40;;;;;;;;;;4911833;29;20206;-79
2021/01/12 10:11:09;;;;;;;3.40;2.40;;;7.20;99.90;;;;;;4909142;29;20249;-78
2021/01/12 10:13:36;;;;;;;6.33;2.40;;;;;;;;;;4911775;29;20511;-80
2021/01/12 10:16:02;;;;;;;3.37;2.80;;;;;;;;;;4912504;29;20455;-82
2021/01/12 10:18:29;;;;;;;5.20;2.17;;;;;;;;;;4911948;29;20537;-78
2021/01/12 10:21:02;;;;;;;2.10;1.50;;;;;;;;;;4911970;29;20503;-77
2021/01/12 10:23:36;;;;;;;2.77;2.03;;;;;;;;;;4911532;29;20836;-78
2021/01/12 10:26:12;;;;;;;2.40;2.00;;;7.30;99.90;;;;;;4911708;29;20542;-81
2021/01/12 10:28:39;;;;;;;3.27;2.40;;;7.40;99.90;;;;;;4911786;29;20198;-80
2021/01/12 10:31:14;;;;;;;3.60;2.63;;;;;;;;;;4909518;29;20948;-79
2021/01/12 10:33:46;;;;;;;3.10;2.47;;;;;;;;;;4906013;29;20530;-79
2021/01/12 10:36:20;;;;;;;3.17;2.60;;;;;;;;;;4904233;29;20614;-80
2021/01/12 10:38:55;;;;;;;2.40;2.20;;;;;;;;;;4911429;29;20646;-79
2021/01/12 10:41:28;;;;;;;2.37;2.17;;;;;;;;;;4911962;29;20244;-80
2021/01/12 10:44:00;;;;;;;2.70;2.50;;;;;;;;;;4910793;29;20995;-79
2021/01/12 10:46:33;;;;;;;3.57;2.80;;;;;;;;;;4906805;29;20450;-81
2021/01/12 10:49:06;;;;;;;4.70;3.90;;;;;;;;;;4898662;29;20534;-78
2021/01/12 10:51:39;;;;;;;3.95;2.80;;;;;;;;;;4893623;29;20454;-79
2021/01/12 10:54:19;;;;;;;2.55;2.20;;;;;;;;;;4892960;29;20606;-78
2021/01/12 10:56:52;;;;;;;2.60;2.10;;;;;;;;;;4893336;29;20212;-81
2021/01/12 10:59:24;;;;;;;2.30;2.10;;;;;;;;;;4894241;29;20504;-79
2021/01/12 11:01:58;;;;;;;3.03;2.53;;;;;;;;;;4878406;29;20474;-78
2021/01/12 11:04:31;;;;;;;3.20;2.73;;;;;;;;;;4898466;29;20538;-77
2021/01/12 11:07:04;;;;;;;4.70;3.43;;;;;;;;;;4896741;29;20460;-78
2021/01/12 11:09:38;;;;;;;3.78;3.20;;;;;;;;;;4895308;29;20453;-80
2021/01/12 11:12:12;;;;;;;3.10;2.80;;;;;;;;;;4895532;29;20222;-78
2021/01/12 11:14:45;;;;;;;5.00;3.67;;;;;;;;;;4896429;29;20448;-80
2021/01/12 11:17:18;;;;;;;2.80;2.50;;;;;;;;;;4896389;29;20439;-78
2021/01/12 11:19:50;;;;;;;4.40;2.63;;;;;;;;;;4896054;29;20907;-81
2021/01/12 11:22:27;;;;;;;5.17;2.27;;;;;;;;;;4881583;29;20470;-80
2021/01/12 11:25:02;;;;;;;2.10;1.90;;;;;;;;;;4891600;29;20583;-78
2021/01/12 11:27:36;;;;;;;6.13;2.63;;;;;;;;;;4898091;29;20536;-77
2021/01/12 11:30:10;;;;;;;3.90;2.13;;;;;;;;;;4900594;29;20453;-78
2021/01/12 11:32:44;;;;;;;5.20;2.40;;;;;;;;;;4898755;29;20485;-78
2021/01/12 11:35:17;;;;;;;3.00;1.80;;;;;;;;;;4896303;29;20454;-78
2021/01/12 11:37:49;;;;;;;2.47;1.93;;;;;;;;;;4895701;29;21126;-80
2021/01/12 11:40:23;;;;;;;2.42;1.95;;;;;;;;;;4890054;29;20578;-80
2021/01/12 11:42:56;;;;;;;2.20;1.90;;;;;;;;;;4897492;29;20289;-80
2021/01/12 11:45:28;;;;;;;2.72;2.15;;;;;;;;;;4901648;29;20485;-81
2021/01/12 11:48:02;;;;;;;2.17;1.80;;;;;;;;;;4910196;29;20312;-81
2021/01/12 11:50:28;;;;;;;2.93;2.10;;;;;;;;;;4914505;29;20205;-79
2021/01/12 11:53:01;;;;;;;2.60;1.90;;;;;;;;;;4914372;29;20469;-78
2021/01/12 11:55:40;;;;;;;2.53;1.98;;;;;;;;;;4914593;29;21054;-81
2021/01/12 11:58:14;;;;;;;5.07;2.03;;;;;;;;;;4916706;29;20233;-79
2021/01/12 12:00:41;;;;;;;3.85;2.70;;;;;;;;;;4911242;29;20222;-80
2021/01/12 12:03:08;;;;;;;2.30;1.98;;;;;;;;;;4916381;29;20612;-78
2021/01/12 12:05:41;;;;;;;3.30;2.80;;;;;;;;;;4914104;29;20632;-77
2021/01/12 12:08:14;;;;;;;3.08;2.78;;;;;;;;;;4910671;29;20193;-78
2021/01/12 12:10:42;;;;;;;3.95;2.40;;;;;;;;;;4912110;29;20202;-77
2021/01/12 12:13:09;;;;;;;3.30;2.80;;;;;;;;;;4911461;29;20216;-78
2021/01/12 12:15:36;;;;;;;2.47;2.25;;;;;;;;;;4910055;29;20195;-80
2021/01/12 12:18:03;;;;;;;3.20;2.63;;;;;;;;;;4910539;29;20684;-79
2021/01/12 12:20:30;;;;;;;5.30;3.45;;;;;;;;;;4912243;29;20225;-79
2021/01/12 12:22:57;;;;;;;4.25;3.03;;;;;;;;;;4912085;29;20720;-77
2021/01/12 12:25:24;;;;;;;5.32;3.10;;;;;;;;;;4912303;29;20211;-77
2021/01/12 12:27:52;;;;;;;3.45;3.05;;;;;;;;;;4910467;29;20257;-80
2021/01/12 12:30:19;;;;;;;2.97;2.65;;;;;;;;;;4907387;29;20201;-80
2021/01/12 12:32:45;;;;;;;3.47;2.85;;;;;;;;;;4909031;29;20310;-79
2021/01/12 12:35:13;;;;;;;2.58;2.38;;;;;;;;;;4910324;29;20283;-77
2021/01/12 12:37:39;;;;;;;2.40;2.20;;;;;;;;;;4910497;29;20509;-78
2021/01/12 12:40:07;;;;;;;3.60;2.30;;;;;;;;;;4910581;29;20223;-77
2021/01/12 12:42:34;;;;;;;6.00;2.08;;;;;;;;;;4911566;29;20218;-77
2021/01/12 12:45:01;;;;;;;2.40;1.90;;;;;;;;;;4911940;29;20203;-78
2021/01/12 12:47:29;;;;;;;2.40;2.10;;;;;;;;;;4910946;29;20226;-81
2021/01/12 12:50:03;;;;;;;2.20;1.90;;;;;;;;;;4910966;29;20196;-84
2021/01/12 12:52:30;;;;;;;3.40;2.17;;;;;;;;;;4905701;29;20227;-77
2021/01/12 12:54:57;;;;;;;3.38;2.55;;;;;;;;;;4908665;29;20636;-82
2021/01/12 12:57:24;;;;;;;1.70;1.50;;;;;;;;;;4910486;29;20669;-79
2021/01/12 12:59:58;;;;;;;2.75;1.80;;;;;;;;;;4909300;29;20247;-75
2021/01/12 13:02:34;;;;;;;4.75;1.30;;;;;;;;;;4909504;29;20580;-78
2021/01/12 13:05:01;;;;;;;1.50;1.08;;;;;;;;;;4911747;29;20199;-78
2021/01/12 13:07:28;;;;;;;4.00;1.40;;;;;;;;;;4911806;29;20200;-78
2021/01/12 13:09:55;;;;;;;3.35;1.60;;;;;;;;;;4911296;29;20200;-78
2021/01/12 13:12:24;;;;;;;3.45;1.88;;;;;;;;;;4910143;29;20305;-80
2021/01/12 13:14:51;;;;;;;2.17;1.85;;;;;;;;;;4905328;29;20260;-77
2021/01/12 13:17:19;;;;;;;2.80;1.80;;;;;;;;;;4908726;29;20207;-81
2021/01/12 13:19:49;;;;;;;2.95;1.83;;;;;;;;;;4909842;29;20232;-80
2021/01/12 13:22:16;;;;;;;1.98;1.70;;;;;;;;;;4909374;29;20721;-78
2021/01/12 13:24:43;;;;;;;3.35;1.65;;;;;;;;;;4909531;29;20667;-78
2021/01/12 13:27:13;;;;;;;4.00;2.10;;;;;;;;;;4903383;29;20199;-77
2021/01/12 13:29:40;;;;;;;3.15;1.50;;;;;;;;;;4911096;29;20264;-79
2021/01/12 13:32:10;;;;;;;4.20;2.00;;;;;;;;;;4910986;29;20220;-76
2021/01/12 13:34:37;;;;;;;3.15;1.70;;;;;;;;;;4909481;29;20195;-77
2021/01/12 13:37:04;;;;;;;3.10;1.70;;;;;;;;;;4905302;29;20210;-77
2021/01/12 13:39:31;;;;;;;2.55;2.00;;;;;;;;;;4907178;29;20198;-77
2021/01/12 13:42:05;;;;;;;2.80;1.85;;;;;;;;;;4909668;29;20220;-78
2021/01/12 13:44:37;;;;;;;3.45;2.20;;;;;;;;;;4907010;29;20214;-77
2021/01/12 13:47:17;;;;;;;4.22;2.50;;;;;;;;;;4906405;29;20240;-77
2021/01/12 13:49:50;;;;;;;2.35;1.40;;;;;;;;;;4895317;29;20195;-77
2021/01/12 13:52:25;;;;;;;1.48;1.30;;;;;;;;;;4895439;29;20704;-78
2021/01/12 13:54:58;;;;;;;3.50;1.10;;;;;;;;;;4895761;29;20192;-77
2021/01/12 13:57:26;;;;;;;1.33;1.05;;;;;;;;;;4886147;29;20711;-78
2021/01/12 14:00:02;;;;;;;1.40;1.10;;;;;;;;;;4889160;29;20231;-77
2021/01/12 14:02:35;;;;;;;2.30;1.10;;;;;;;;;;4876464;29;20299;-79
2021/01/12 14:05:08;;;;;;;1.10;0.95;;;;;;;;;;4876643;29;20295;-77
2021/01/12 14:07:41;;;;;;;1.67;1.02;;;;;;;;;;4887551;29;20730;-79
2021/01/12 14:10:14;;;;;;;3.95;1.50;;;;;;;;;;4899307;29;20209;-76
2021/01/12 14:12:50;;;;;;;3.22;1.20;;;;;;;;;;4895576;29;20732;-77
2021/01/12 14:15:23;;;;;;;5.93;1.38;;;;;;;;;;4894523;29;20286;-77
2021/01/12 14:17:57;;;;;;;3.45;1.75;;;;;;;;;;4895431;29;20221;-77
2021/01/12 14:20:30;;;;;;;3.35;1.08;;;;;;;;;;4887275;29;20314;-78
2021/01/12 14:23:04;;;;;;;3.75;1.42;;;;;;;;;;4888282;29;20216;-77
2021/01/12 14:25:37;;;;;;;3.50;1.65;;;;;;;;;;4891963;29;20196;-77
2021/01/12 14:28:10;;;;;;;3.67;1.50;;;;;;;;;;4893141;29;20199;-77
2021/01/12 14:30:43;;;;;;;2.40;1.17;;;;;;;;;;4887340;29;20195;-78
2021/01/12 14:33:16;;;;;;;2.50;1.73;;;;;;;;;;4893842;29;20272;-79
2021/01/12 14:35:49;;;;;;;5.95;2.13;;;;;;;;;;4889146;29;20220;-79
2021/01/12 14:38:29;;;;;;;2.78;1.65;;;;;;;;;;4896350;29;20642;-79
2021/01/12 14:41:02;;;;;;;3.95;1.80;;;;;;;;;;4898863;29;20227;-78
2021/01/12 14:43:35;;;;;;;4.60;1.42;;;;;;;;;;4892045;29;20220;-78
2021/01/12 14:46:08;;;;;;;4.53;1.90;;;;;;;;;;4895016;29;20240;-76
2021/01/12 14:48:41;;;;;;;5.40;2.13;;;;;;;;;;4913629;29;20266;-77
2021/01/12 14:51:08;;;;;;;7.32;2.15;;;;;;;;;;4915780;29;20296;-79
2021/01/12 14:53:41;;;;;;;5.05;1.30;;;;;;;;;;4914886;29;20211;-77
2021/01/12 14:56:14;;;;;;;4.22;1.50;;;;;;;;;;4917204;29;20290;-77
2021/01/12 14:58:41;;;;;;;2.67;1.48;;;;;;;;;;4917562;29;20194;-76
2021/01/12 15:01:08;;;;;;;3.20;1.35;;;;;;;;;;4917428;29;20221;-77
2021/01/12 15:03:41;;;;;;;2.05;1.40;;;;;;;;;;4916530;29;20227;-78
2021/01/12 15:06:14;;;;;;;1.80;1.33;;;;;;;;;;4911516;29;20210;-77
2021/01/12 15:08:48;;;;;;;5.47;1.75;;;;;;;;;;4913812;29;20200;-77